createdAt,value
2017-12-19T00:01:18.934Z,95244.86
2017-12-19T00:03:46.331Z,95255.81
2017-12-19T00:06:13.686Z,95249.03
2017-12-19T00:08:41.150Z,95262.40
2017-12-19T00:11:08.492Z,95257.88
2017-12-19T00:13:35.877Z,95238.72
2017-12-19T00:16:03.211Z,95250.45
2017-12-19T00:18:30.546Z,95268.81
2017-12-19T00:20:57.967Z,95263.66
2017-12-19T00:23:25.323Z,95274.25
2017-12-19T00:25:52.682Z,95265.53
2017-12-19T00:28:20.072Z,95282.69
2017-12-19T00:30:47.410Z,95292.17
2017-12-19T00:33:14.799Z,95298.17
2017-12-19T00:35:42.138Z,95292.33
2017-12-19T00:38:09.554Z,95286.23
2017-12-19T00:40:36.891Z,95280.94
2017-12-19T00:43:04.291Z,95293.98
2017-12-19T00:45:31.763Z,95294.94
2017-12-19T00:47:59.155Z,95310.03
2017-12-19T00:50:26.550Z,95307.77
2017-12-19T00:52:53.921Z,95308.16
2017-12-19T00:55:21.316Z,95309.27
2017-12-19T00:57:48.657Z,95316.62
2017-12-19T01:00:16.083Z,95311.52
2017-12-19T01:02:43.435Z,95315.30
2017-12-19T01:05:10.803Z,95310.92
2017-12-19T01:07:38.200Z,95319.64
2017-12-19T01:10:05.588Z,95313.19
2017-12-19T01:12:32.991Z,95312.07
2017-12-19T01:15:00.326Z,95318.48
2017-12-19T01:17:27.686Z,95323.40
2017-12-19T01:19:55.087Z,95326.41
2017-12-19T01:22:22.489Z,95324.52
2017-12-19T01:24:49.854Z,95320.13
2017-12-19T01:27:17.235Z,95318.06
2017-12-19T01:29:44.609Z,95326.77
2017-12-19T01:32:12.038Z,95332.42
2017-12-19T01:34:39.420Z,95332.96
2017-12-19T01:37:06.803Z,95333.71
2017-12-19T01:39:34.137Z,95318.21
2017-12-19T01:42:01.519Z,95327.28
2017-12-19T01:44:28.901Z,95338.61
2017-12-19T01:46:56.269Z,95332.00
2017-12-19T01:49:23.670Z,95331.63
2017-12-19T01:51:51.030Z,95332.94
2017-12-19T01:54:18.462Z,95324.61
2017-12-19T01:56:45.873Z,95298.31
2017-12-19T01:59:13.253Z,95316.13
2017-12-19T02:01:40.590Z,95312.45
2017-12-19T02:04:08.049Z,95331.81
2017-12-19T02:06:35.402Z,95334.73
2017-12-19T02:09:02.776Z,95337.75
2017-12-19T02:11:30.167Z,95340.67
2017-12-19T02:13:57.525Z,95338.22
2017-12-19T02:16:24.924Z,95349.17
2017-12-19T02:18:52.337Z,95347.11
2017-12-19T02:21:19.693Z,95346.19
2017-12-19T02:23:47.074Z,95354.09
2017-12-19T02:26:14.470Z,95351.51
2017-12-19T02:28:41.830Z,95349.60
2017-12-19T02:31:09.265Z,95353.80
2017-12-19T02:33:36.613Z,95348.89
2017-12-19T02:36:04.055Z,95359.45
2017-12-19T02:38:31.409Z,95354.94
2017-12-19T02:40:58.807Z,95349.13
2017-12-19T02:43:26.188Z,95361.02
2017-12-19T02:45:53.585Z,95360.11
2017-12-19T02:48:20.970Z,95364.05
2017-12-19T02:50:48.353Z,95362.81
2017-12-19T02:53:15.783Z,95369.77
2017-12-19T02:55:43.210Z,95352.54
2017-12-19T02:58:10.545Z,95367.73
2017-12-19T03:00:37.907Z,95358.26
2017-12-19T03:03:05.343Z,95368.88
2017-12-19T03:05:32.737Z,95334.58
2017-12-19T03:08:00.083Z,95359.37
2017-12-19T03:10:27.513Z,95362.27
2017-12-19T03:12:54.919Z,95363.80
2017-12-19T03:15:22.364Z,95363.58
2017-12-19T03:17:49.739Z,95362.27
2017-12-19T03:20:17.097Z,95368.48
2017-12-19T03:22:44.478Z,95365.13
2017-12-19T03:25:18.006Z,95376.27
2017-12-19T03:27:45.427Z,95352.97
2017-12-19T03:30:12.825Z,95373.41
2017-12-19T03:32:40.188Z,95377.00
2017-12-19T03:35:07.582Z,95381.05
2017-12-19T03:37:35.025Z,95382.37
2017-12-19T03:40:02.451Z,95389.53
2017-12-19T03:42:29.814Z,95395.21
2017-12-19T03:44:57.216Z,95401.25
2017-12-19T03:47:24.579Z,95406.34
2017-12-19T03:49:51.970Z,95404.44
2017-12-19T03:52:19.311Z,95405.96
2017-12-19T03:54:46.683Z,95412.34
2017-12-19T03:57:14.079Z,95421.59
2017-12-19T03:59:41.470Z,95414.23
2017-12-19T04:02:08.837Z,95418.66
2017-12-19T04:04:36.223Z,95425.41
2017-12-19T04:07:03.611Z,95416.92
2017-12-19T04:09:30.997Z,95430.55
2017-12-19T04:11:58.390Z,95433.81
2017-12-19T04:14:25.792Z,95427.95
2017-12-19T04:16:53.224Z,95422.88
2017-12-19T04:19:20.605Z,95424.06
2017-12-19T04:21:47.998Z,95430.30
2017-12-19T04:24:15.330Z,95432.83
2017-12-19T04:26:42.774Z,95441.94
2017-12-19T04:29:10.167Z,95446.27
2017-12-19T04:31:37.553Z,95437.19
2017-12-19T04:34:04.966Z,95441.73
2017-12-19T04:36:32.383Z,95447.62
2017-12-19T04:38:59.776Z,95454.22
2017-12-19T04:41:27.237Z,95455.59
2017-12-19T04:43:54.754Z,95458.42
2017-12-19T04:46:22.140Z,95459.94
2017-12-19T04:48:49.553Z,95453.33
2017-12-19T04:51:16.967Z,95452.59
2017-12-19T04:53:44.391Z,95469.65
2017-12-19T04:56:11.802Z,95464.74
2017-12-19T04:58:39.258Z,95462.86
2017-12-19T05:01:06.654Z,95447.88
2017-12-19T05:03:34.041Z,95460.58
2017-12-19T05:06:01.480Z,95460.61
2017-12-19T05:08:28.860Z,95458.91
2017-12-19T05:10:56.325Z,95472.91
2017-12-19T05:13:23.708Z,95475.58
2017-12-19T05:15:51.111Z,95474.44
2017-12-19T05:18:18.534Z,95486.91
2017-12-19T05:20:45.949Z,95489.75
2017-12-19T05:23:13.377Z,95493.17
2017-12-19T05:25:40.718Z,95495.63
2017-12-19T05:28:08.079Z,95490.71
2017-12-19T05:30:35.524Z,95479.91
2017-12-19T05:33:02.890Z,95484.67
2017-12-19T05:35:30.250Z,95496.03
2017-12-19T05:37:57.731Z,95506.25
2017-12-19T05:40:25.082Z,95503.77
2017-12-19T05:42:52.459Z,95510.20
2017-12-19T05:45:19.895Z,95516.09
2017-12-19T05:47:47.251Z,95523.84
2017-12-19T05:50:14.636Z,95515.70
2017-12-19T05:52:42.092Z,95525.73
2017-12-19T05:55:09.536Z,95509.27
2017-12-19T05:57:37.013Z,95509.64
2017-12-19T06:00:04.484Z,95521.59
2017-12-19T06:02:31.922Z,95525.92
2017-12-19T06:04:59.306Z,95518.73
2017-12-19T06:07:26.719Z,95531.82
2017-12-19T06:09:54.138Z,95533.71
2017-12-19T06:12:21.558Z,95535.77
2017-12-19T06:14:48.953Z,95538.83
2017-12-19T06:17:16.385Z,95536.20
2017-12-19T06:19:45.823Z,95532.61
2017-12-19T06:22:13.216Z,95536.96
2017-12-19T06:24:40.654Z,95539.98
2017-12-19T06:27:08.367Z,95550.38
2017-12-19T06:29:35.786Z,95537.91
2017-12-19T06:32:03.223Z,95543.03
2017-12-19T06:34:30.676Z,95543.23
2017-12-19T06:36:59.180Z,95553.41
2017-12-19T06:39:26.635Z,95552.30
2017-12-19T06:41:54.763Z,95557.27
2017-12-19T06:44:22.281Z,95565.22
2017-12-19T06:46:49.746Z,95567.08
2017-12-19T06:49:17.222Z,95567.63
2017-12-19T06:51:44.661Z,95568.61
2017-12-19T06:54:12.220Z,95577.88
2017-12-19T06:56:39.634Z,95582.23
2017-12-19T06:59:07.054Z,95574.86
2017-12-19T07:01:34.507Z,95585.48
2017-12-19T07:04:01.961Z,95591.89
2017-12-19T07:06:29.384Z,95587.93
2017-12-19T07:08:56.807Z,95590.02
2017-12-19T07:11:24.523Z,95589.83
2017-12-19T07:13:51.985Z,95596.29
2017-12-19T07:16:19.486Z,95596.64
2017-12-19T07:18:47.152Z,95606.29
2017-12-19T07:21:16.080Z,95601.38
2017-12-19T07:23:43.464Z,95599.52
2017-12-19T07:26:10.902Z,95596.47
2017-12-19T07:28:38.381Z,95601.60
2017-12-19T07:31:05.894Z,95603.86
2017-12-19T07:33:33.542Z,95596.47
2017-12-19T07:36:01.049Z,95595.73
2017-12-19T07:38:29.010Z,95584.37
2017-12-19T07:40:56.461Z,95604.23
2017-12-19T07:43:23.932Z,95610.30
2017-12-19T07:45:51.433Z,95607.06
2017-12-19T07:48:18.867Z,95619.95
2017-12-19T07:50:46.365Z,95603.31
2017-12-19T07:53:13.890Z,95627.75
2017-12-19T07:55:41.407Z,95623.75
2017-12-19T07:58:08.814Z,95614.09
2017-12-19T08:00:36.263Z,95638.90
2017-12-19T08:03:03.638Z,95641.22
2017-12-19T08:05:31.048Z,95647.23
2017-12-19T08:07:58.439Z,95631.55
2017-12-19T08:10:25.880Z,95640.07
2017-12-19T08:12:53.393Z,95645.03
2017-12-19T08:15:20.780Z,95624.52
2017-12-19T08:17:48.296Z,95667.02
2017-12-19T08:20:15.690Z,95654.84
2017-12-19T08:22:43.093Z,95641.39
2017-12-19T08:25:10.864Z,95649.16
2017-12-19T08:27:38.242Z,95651.44
2017-12-19T08:30:06.207Z,95645.76
2017-12-19T08:32:33.841Z,95632.13
2017-12-19T08:35:02.125Z,95668.14
2017-12-19T08:37:29.684Z,95660.95
2017-12-19T08:39:57.111Z,95666.45
2017-12-19T08:42:24.757Z,95623.40
2017-12-19T08:44:52.330Z,95659.62
2017-12-19T08:47:19.856Z,95663.20
2017-12-19T08:49:47.577Z,95650.52
2017-12-19T08:52:15.200Z,95674.20
2017-12-19T08:54:42.979Z,95673.83
2017-12-19T08:57:10.410Z,95679.13
2017-12-19T08:59:37.972Z,95679.91
2017-12-19T09:02:05.403Z,95684.25
2017-12-19T09:04:32.930Z,95684.44
2017-12-19T09:07:00.411Z,95677.98
2017-12-19T09:09:28.375Z,95680.84
2017-12-19T09:11:57.097Z,95648.81
2017-12-19T09:14:26.037Z,95678.00
2017-12-19T09:16:53.606Z,95667.00
2017-12-19T09:19:21.150Z,95672.48
2017-12-19T09:21:48.658Z,95681.22
2017-12-19T09:24:16.206Z,95684.83
2017-12-19T09:26:43.687Z,95687.28
2017-12-19T09:29:11.143Z,95676.28
2017-12-19T09:31:39.564Z,95688.62
2017-12-19T09:34:07.442Z,95687.08
2017-12-19T09:36:35.050Z,95681.02
2017-12-19T09:39:03.072Z,95674.95
2017-12-19T09:41:30.666Z,95686.91
2017-12-19T09:43:58.047Z,95684.24
2017-12-19T09:46:25.544Z,95689.94
2017-12-19T09:48:53.033Z,95651.47
2017-12-19T09:51:20.633Z,95690.11
2017-12-19T09:53:52.429Z,95694.86
2017-12-19T09:56:20.051Z,95692.38
2017-12-19T09:58:47.596Z,95693.14
2017-12-19T10:01:15.372Z,95692.02
2017-12-19T10:03:42.888Z,95698.45
2017-12-19T10:06:10.340Z,95702.23
2017-12-19T10:08:37.835Z,95704.14
2017-12-19T10:11:05.312Z,95699.59
2017-12-19T10:13:32.914Z,95697.30
2017-12-19T10:16:00.283Z,95697.14
2017-12-19T10:18:27.739Z,95697.31
2017-12-19T10:20:55.182Z,95710.39
2017-12-19T10:23:22.788Z,95701.67
2017-12-19T10:25:50.238Z,95704.91
2017-12-19T10:28:17.702Z,95702.27
2017-12-19T10:33:09.825Z,95715.50
2017-12-19T10:35:37.858Z,95711.91
2017-12-19T10:38:05.440Z,95716.09
2017-12-19T10:40:32.920Z,95721.02
2017-12-19T10:43:00.345Z,95721.00
2017-12-19T10:45:27.804Z,95718.16
2017-12-19T10:47:55.313Z,95712.67
2017-12-19T10:50:22.819Z,95714.38
2017-12-19T10:52:50.646Z,95715.33
2017-12-19T10:55:18.178Z,95714.75
2017-12-19T10:57:45.703Z,95724.80
2017-12-19T11:00:13.175Z,95713.41
2017-12-19T11:02:40.729Z,95719.68
2017-12-19T11:05:08.182Z,95717.01
2017-12-19T11:07:35.794Z,95723.24
2017-12-19T11:10:03.190Z,95723.44
2017-12-19T11:12:30.770Z,95729.50
2017-12-19T11:14:58.251Z,95727.02
2017-12-19T11:17:25.735Z,95725.46
2017-12-19T11:19:54.116Z,95717.52
2017-12-19T11:22:21.704Z,95718.81
2017-12-19T11:24:49.798Z,95713.12
2017-12-19T11:27:17.467Z,95711.79
2017-12-19T11:29:44.917Z,95709.13
2017-12-19T11:32:12.444Z,95718.22
2017-12-19T11:34:39.930Z,95717.81
2017-12-19T11:37:07.916Z,95714.62
2017-12-19T11:39:35.476Z,95712.91
2017-12-19T11:42:03.389Z,95716.98
2017-12-19T11:44:30.987Z,95715.45
2017-12-19T11:46:58.394Z,95721.53
2017-12-19T11:49:25.912Z,95722.67
2017-12-19T11:51:53.724Z,95726.84
2017-12-19T11:54:21.257Z,95722.77
2017-12-19T11:56:48.744Z,95723.19
2017-12-19T11:59:16.120Z,95710.31
2017-12-19T12:01:43.555Z,95716.60
2017-12-19T12:04:10.961Z,95693.64
2017-12-19T12:06:38.372Z,95711.41
2017-12-19T12:09:05.937Z,95710.52
2017-12-19T12:11:33.331Z,95709.34
2017-12-19T12:14:00.713Z,95724.19
2017-12-19T12:16:28.183Z,95711.47
2017-12-19T12:18:55.720Z,95681.91
2017-12-19T12:21:23.149Z,95702.40
2017-12-19T12:23:50.553Z,95719.26
2017-12-19T12:26:17.976Z,95698.26
2017-12-19T12:28:45.411Z,95720.77
2017-12-19T12:31:12.832Z,95715.06
2017-12-19T12:33:40.251Z,95697.65
2017-12-19T12:36:07.675Z,95712.23
2017-12-19T12:38:35.198Z,95698.03
2017-12-19T12:41:02.612Z,95709.80
2017-12-19T12:43:30.023Z,95724.01
2017-12-19T12:45:57.490Z,95727.61
2017-12-19T12:48:25.044Z,95708.31
2017-12-19T12:50:52.493Z,95722.11
2017-12-19T12:53:19.950Z,95733.89
2017-12-19T12:55:47.561Z,95718.37
2017-12-19T12:58:14.979Z,95732.20
2017-12-19T13:00:42.425Z,95721.39
2017-12-19T13:03:09.809Z,95752.87
2017-12-19T13:05:37.437Z,95735.61
2017-12-19T13:08:04.900Z,95749.42
2017-12-19T13:10:33.744Z,95719.64
2017-12-19T13:13:01.197Z,95731.63
2017-12-19T13:15:28.649Z,95759.28
2017-12-19T13:17:56.206Z,95773.52
2017-12-19T13:20:23.729Z,95775.05
2017-12-19T13:22:51.222Z,95757.97
2017-12-19T13:25:18.708Z,95768.41
2017-12-19T13:27:46.095Z,95763.30
2017-12-19T13:30:20.891Z,95726.88
2017-12-19T13:32:48.332Z,95741.67
2017-12-19T13:35:16.040Z,95764.98
2017-12-19T13:37:43.604Z,95767.45
2017-12-19T13:40:11.442Z,95776.17
2017-12-19T13:42:38.964Z,95788.47
2017-12-19T13:45:18.866Z,95746.04
2017-12-19T13:47:46.316Z,95783.02
2017-12-19T13:50:21.079Z,95776.55
2017-12-19T13:52:48.518Z,95770.66
2017-12-19T13:55:19.005Z,95679.89
2017-12-19T13:57:46.450Z,95794.34
2017-12-19T14:00:24.535Z,95767.26
2017-12-19T14:02:52.137Z,95786.94
2017-12-19T14:05:19.691Z,95785.45
2017-12-19T14:07:47.127Z,95761.19
2017-12-19T14:10:16.843Z,95790.17
2017-12-19T14:12:44.420Z,95794.53
2017-12-19T14:15:11.903Z,95776.89
2017-12-19T14:17:39.340Z,95798.54
2017-12-19T14:20:13.876Z,95763.66
2017-12-19T14:22:41.793Z,95797.03
2017-12-19T14:25:09.554Z,95798.17
2017-12-19T14:27:37.261Z,95799.87
2017-12-19T14:30:04.870Z,95811.98
2017-12-19T14:32:32.380Z,95806.89
2017-12-19T14:34:59.890Z,95813.33
2017-12-19T14:37:27.664Z,95806.49
2017-12-19T14:39:55.173Z,95818.41
2017-12-19T14:42:22.813Z,95816.53
2017-12-19T14:44:50.241Z,95815.26
2017-12-19T14:47:17.887Z,95801.61
2017-12-19T14:49:45.390Z,95819.83
2017-12-19T14:52:12.895Z,95830.24
2017-12-19T14:54:41.478Z,95842.55
2017-12-19T14:57:09.116Z,95834.05
2017-12-19T14:59:36.672Z,95818.09
2017-12-19T15:02:04.076Z,95828.94
2017-12-19T15:04:31.653Z,95809.76
2017-12-19T15:06:59.531Z,95835.38
2017-12-19T15:09:27.161Z,95819.06
2017-12-19T15:11:54.523Z,95844.86
2017-12-19T15:14:22.082Z,95823.59
2017-12-19T15:16:49.529Z,95845.23
2017-12-19T15:19:17.418Z,95842.00
2017-12-19T15:21:44.911Z,95852.06
2017-12-19T15:24:12.461Z,95847.91
2017-12-19T15:26:40.031Z,95836.12
2017-12-19T15:29:07.516Z,95827.97
2017-12-19T15:31:34.969Z,95853.78
2017-12-19T15:34:02.376Z,95842.21
2017-12-19T15:36:29.895Z,95829.13
2017-12-19T15:38:57.356Z,95833.30
2017-12-19T15:41:25.408Z,95847.91
2017-12-19T15:43:52.880Z,95831.21
2017-12-19T15:46:20.280Z,95846.39
2017-12-19T15:48:47.727Z,95842.58
2017-12-19T15:51:15.192Z,95835.77
2017-12-19T15:53:42.564Z,95853.22
2017-12-19T15:56:10.033Z,95848.29
2017-12-19T15:58:37.522Z,95847.14
2017-12-19T16:01:04.935Z,95862.72
2017-12-19T16:03:32.346Z,95842.16
2017-12-19T16:05:59.807Z,95858.34
2017-12-19T16:08:27.252Z,95869.91
2017-12-19T16:10:54.648Z,95865.54
2017-12-19T16:13:22.085Z,95848.24
2017-12-19T16:15:49.754Z,95871.81
2017-12-19T16:18:17.427Z,95861.91
2017-12-19T16:20:44.859Z,95855.26
2017-12-19T16:23:12.272Z,95863.20
2017-12-19T16:25:39.706Z,95872.50
2017-12-19T16:28:07.105Z,95862.84
2017-12-19T16:30:34.521Z,95870.80
2017-12-19T16:33:01.932Z,95872.33
2017-12-19T16:35:29.376Z,95839.83
2017-12-19T16:37:56.745Z,95868.89
2017-12-19T16:40:24.139Z,95872.28
2017-12-19T16:42:51.528Z,95881.22
2017-12-19T16:45:19.716Z,95879.88
2017-12-19T16:47:47.167Z,95880.25
2017-12-19T16:50:14.681Z,95879.87
2017-12-19T16:52:42.234Z,95875.88
2017-12-19T16:55:09.831Z,95876.81
2017-12-19T16:57:37.281Z,95886.87
2017-12-19T17:00:04.672Z,95855.13
2017-12-19T17:02:32.056Z,95897.69
2017-12-19T17:04:59.475Z,95899.56
2017-12-19T17:07:26.919Z,95897.45
2017-12-19T17:09:54.318Z,95899.92
2017-12-19T17:12:21.713Z,95907.30
2017-12-19T17:14:49.121Z,95894.20
2017-12-19T17:17:16.478Z,95898.94
2017-12-19T17:19:43.831Z,95886.59
2017-12-19T17:22:11.235Z,95901.80
2017-12-19T17:24:38.644Z,95863.61
2017-12-19T17:27:06.019Z,95900.44
2017-12-19T17:29:33.408Z,95895.88
2017-12-19T17:32:00.835Z,95903.30
2017-12-19T17:34:28.199Z,95883.72
2017-12-19T17:36:55.617Z,95897.75
2017-12-19T17:39:22.991Z,95903.27
2017-12-19T17:41:50.441Z,95900.05
2017-12-19T17:44:17.804Z,95908.56
2017-12-19T17:46:45.266Z,95888.05
2017-12-19T17:49:12.688Z,95901.89
2017-12-19T17:51:40.092Z,95894.30
2017-12-19T17:54:07.428Z,95885.52
2017-12-19T17:56:34.852Z,95908.36
2017-12-19T17:59:02.930Z,95905.68
2017-12-19T18:01:30.292Z,95898.06
2017-12-19T18:03:57.824Z,95908.58
2017-12-19T18:06:27.248Z,95901.35
2017-12-19T18:08:54.734Z,95894.44
2017-12-19T18:11:22.159Z,95908.92
2017-12-19T18:13:49.610Z,95913.63
2017-12-19T18:16:16.987Z,95907.50
2017-12-19T18:18:44.377Z,95915.14
2017-12-19T18:21:11.762Z,95911.73
2017-12-19T18:23:39.168Z,95901.88
2017-12-19T18:26:06.542Z,95898.42
2017-12-19T18:28:33.949Z,95919.12
2017-12-19T18:31:01.307Z,95914.78
2017-12-19T18:33:28.723Z,95920.65
2017-12-19T18:35:56.111Z,95913.63
2017-12-19T18:38:23.596Z,95915.34
2017-12-19T18:40:50.969Z,95914.70
2017-12-19T18:43:18.354Z,95896.10
2017-12-19T18:45:45.771Z,95925.91
2017-12-19T18:48:13.152Z,95899.66
2017-12-19T18:50:40.558Z,95925.55
2017-12-19T18:53:07.990Z,95928.34
2017-12-19T18:55:35.351Z,95922.64
2017-12-19T18:58:02.727Z,95913.53
2017-12-19T19:00:30.118Z,95930.60
2017-12-19T19:02:57.474Z,95929.27
2017-12-19T19:05:24.871Z,95931.51
2017-12-19T19:07:52.302Z,95912.89
2017-12-19T19:10:19.634Z,95936.44
2017-12-19T19:12:47.036Z,95931.51
2017-12-19T19:15:14.451Z,95939.63
2017-12-19T19:17:41.804Z,95945.70
2017-12-19T19:20:09.219Z,95930.50
2017-12-19T19:22:36.727Z,95945.29
2017-12-19T19:25:04.087Z,95948.34
2017-12-19T19:27:31.461Z,95949.45
2017-12-19T19:29:58.869Z,95948.69
2017-12-19T19:32:26.214Z,95953.59
2017-12-19T19:34:53.573Z,95944.48
2017-12-19T19:37:20.979Z,95936.28
2017-12-19T19:39:48.423Z,95955.48
2017-12-19T19:42:15.753Z,95954.31
2017-12-19T19:44:43.129Z,95954.51
2017-12-19T19:47:10.479Z,95949.58
2017-12-19T19:49:37.886Z,95955.62
2017-12-19T19:52:05.246Z,95932.63
2017-12-19T19:54:32.610Z,95936.80
2017-12-19T19:57:00.011Z,95946.89
2017-12-19T19:59:27.397Z,95956.53
2017-12-19T20:01:54.822Z,95950.64
2017-12-19T20:04:22.179Z,95958.61
2017-12-19T20:06:49.580Z,95955.92
2017-12-19T20:09:16.974Z,95950.45
2017-12-19T20:11:44.343Z,95947.38
2017-12-19T20:14:11.726Z,95957.56
2017-12-19T20:16:39.163Z,95950.86
2017-12-19T20:19:06.587Z,95941.91
2017-12-19T20:21:33.949Z,95961.05
2017-12-19T20:24:01.360Z,95952.13
2017-12-19T20:26:28.764Z,95946.77
2017-12-19T20:28:56.112Z,95956.97
2017-12-19T20:31:23.548Z,95959.16
2017-12-19T20:33:50.959Z,95962.97
2017-12-19T20:36:18.294Z,95960.42
2017-12-19T20:38:45.651Z,95964.03
2017-12-19T20:41:13.093Z,95956.80
2017-12-19T20:43:40.485Z,95945.72
2017-12-19T20:46:07.848Z,95907.88
2017-12-19T20:48:35.286Z,95953.91
2017-12-19T20:51:02.687Z,95946.09
2017-12-19T20:53:30.048Z,95948.31
2017-12-19T20:55:57.407Z,95946.95
2017-12-19T20:58:24.807Z,95958.68
2017-12-19T21:00:52.151Z,95949.52
2017-12-19T21:03:19.645Z,95968.66
2017-12-19T21:05:47.012Z,95958.38
2017-12-19T21:08:14.398Z,95944.58
2017-12-19T21:10:41.742Z,95969.49
2017-12-19T21:13:09.162Z,95960.02
2017-12-19T21:15:36.503Z,95969.64
2017-12-19T21:18:03.869Z,95975.30
2017-12-19T21:20:31.380Z,95974.34
2017-12-19T21:22:58.730Z,95972.22
2017-12-19T21:25:26.247Z,95982.63
2017-12-19T21:27:53.620Z,95978.03
2017-12-19T21:30:20.971Z,95989.34
2017-12-19T21:32:48.367Z,95984.00
2017-12-19T21:35:15.740Z,95995.18
2017-12-19T21:37:43.082Z,95990.08
2017-12-19T21:40:10.453Z,95989.89
2017-12-19T21:42:37.828Z,95987.14
2017-12-19T21:45:05.180Z,95990.58
2017-12-19T21:47:32.574Z,95969.56
2017-12-19T21:49:59.921Z,95986.02
2017-12-19T21:52:27.330Z,95987.64
2017-12-19T21:54:54.690Z,96005.60
2017-12-19T21:57:22.086Z,95999.93
2017-12-19T21:59:49.474Z,95995.41
2017-12-19T22:02:16.847Z,95989.31
2017-12-19T22:04:44.254Z,95999.89
2017-12-19T22:07:11.621Z,95980.70
2017-12-19T22:09:39.019Z,96013.65
2017-12-19T22:12:06.415Z,96008.52
2017-12-19T22:14:33.839Z,96013.34
2017-12-19T22:17:01.190Z,96012.52
2017-12-19T22:19:28.591Z,96013.53
2017-12-19T22:21:55.990Z,96007.28
2017-12-19T22:24:23.326Z,96007.74
2017-12-19T22:26:50.716Z,95987.02
2017-12-19T22:29:18.079Z,96013.83
2017-12-19T22:31:45.473Z,96011.70
2017-12-19T22:34:12.858Z,96010.74
2017-12-19T22:36:40.222Z,96006.72
2017-12-19T22:39:07.639Z,96006.80
2017-12-19T22:41:35.006Z,95999.01
2017-12-19T22:44:02.376Z,95989.12
2017-12-19T22:46:29.773Z,95997.92
2017-12-19T22:48:57.190Z,95970.73
2017-12-19T22:51:24.564Z,95990.58
2017-12-19T22:54:05.286Z,95986.39
2017-12-19T22:56:32.690Z,95961.84
2017-12-19T22:59:00.079Z,95989.83
2017-12-19T23:01:27.432Z,95992.86
2017-12-19T23:03:54.796Z,95990.80
2017-12-19T23:06:22.233Z,95982.36
2017-12-19T23:08:49.575Z,95969.60
2017-12-19T23:11:16.976Z,95981.04
2017-12-19T23:13:44.401Z,95988.84
2017-12-19T23:16:11.758Z,95982.85
2017-12-19T23:18:39.104Z,95988.42
2017-12-19T23:21:06.556Z,95984.27
2017-12-19T23:23:33.949Z,95990.78
2017-12-19T23:26:01.316Z,95990.88
2017-12-19T23:28:28.800Z,95991.69
2017-12-19T23:30:56.486Z,95990.23
2017-12-19T23:33:23.951Z,95984.08
2017-12-19T23:35:51.331Z,95994.33
2017-12-19T23:38:18.761Z,95989.23
2017-12-19T23:40:46.636Z,95988.84
2017-12-19T23:43:14.039Z,95998.09
2017-12-19T23:45:41.495Z,96000.88
2017-12-19T23:48:08.937Z,95999.39
2017-12-19T23:50:37.087Z,95989.17
2017-12-19T23:53:04.556Z,95994.88
2017-12-19T23:55:32.134Z,95995.59
2017-12-19T23:57:59.492Z,95989.69
